Time;durP1;ratioP1;P1;durP2;ratioP2;P2;SDS_P1;SDS_P2;PMS_P1;PMS_P2;Temp;Humidity;BMP_temperature;BMP_pressure;BME280_temperature;BME280_humidity;BME280_pressure;Samples;Min_cycle;Max_cycle;Signal;HPM_P1;HPM_P2
2023/10/28 00:01:17;;;;;;;2.65;0.75;;;21.80;68.40;;;;;;5102610;28;20060;-40
2023/10/28 00:03:43;;;;;;;2.97;0.73;;;21.80;68.40;;;;;;5103298;28;20069;-40
2023/10/28 00:06:09;;;;;;;0.82;0.55;;;21.80;68.40;;;;;;5102589;28;20052;-40
2023/10/28 00:08:36;;;;;;;0.93;0.60;;;21.80;68.40;;;;;;5100251;28;20055;-40
2023/10/28 00:11:04;;;;;;;1.42;0.70;;;21.80;68.30;;;;;;5102568;28;20031;-40
2023/10/28 00:13:30;;;;;;;1.10;0.60;;;21.80;68.30;;;;;;5095550;28;20062;-40
2023/10/28 00:15:57;;;;;;;0.73;0.50;;;21.80;68.20;;;;;;5102796;28;20090;-39
2023/10/28 00:18:24;;;;;;;1.27;0.70;;;21.80;68.20;;;;;;5099204;28;20040;-39
2023/10/28 00:20:50;;;;;;;1.27;0.82;;;21.80;68.20;;;;;;5096092;28;20024;-38
2023/10/28 00:23:17;;;;;;;0.88;0.60;;;21.80;68.20;;;;;;5088817;28;20044;-39
2023/10/28 00:25:43;;;;;;;1.58;0.70;;;21.80;68.10;;;;;;5091865;28;20031;-39
2023/10/28 00:28:09;;;;;;;0.93;0.60;;;21.80;68.10;;;;;;5091027;28;20036;-39
2023/10/28 00:30:39;;;;;;;1.87;0.60;;;21.80;68.10;;;;;;5102009;28;20026;-39
2023/10/28 00:33:05;;;;;;;0.88;0.60;;;21.80;68.00;;;;;;5086353;28;20028;-40
2023/10/28 00:35:31;;;;;;;0.77;0.60;;;21.70;68.00;;;;;;5088427;28;20032;-39
2023/10/28 00:37:58;;;;;;;1.23;0.65;;;21.70;68.00;;;;;;5089906;28;20051;-39
2023/10/28 00:40:30;;;;;;;2.40;0.60;;;21.70;68.00;;;;;;5096165;28;20036;-39
2023/10/28 00:42:58;;;;;;;1.77;0.70;;;21.70;68.00;;;;;;5086384;28;20049;-39
2023/10/28 00:45:24;;;;;;;1.52;0.60;;;21.70;68.00;;;;;;5094804;28;20028;-39
2023/10/28 00:47:53;;;;;;;1.30;0.60;;;21.70;68.00;;;;;;5093790;28;20040;-39
2023/10/28 00:50:19;;;;;;;1.20;0.70;;;21.70;68.00;;;;;;5093849;28;20028;-39
2023/10/28 00:52:52;;;;;;;0.77;0.60;;;21.70;68.00;;;;;;5100105;28;20028;-39
2023/10/28 00:55:20;;;;;;;1.42;0.65;;;21.70;68.00;;;;;;5100066;28;20123;-39
2023/10/28 00:57:46;;;;;;;0.88;0.52;;;21.70;68.00;;;;;;5084658;28;20017;-40
2023/10/28 01:00:14;;;;;;;1.03;0.80;;;21.70;67.90;;;;;;5089926;28;20111;-40
2023/10/28 01:02:45;;;;;;;1.60;0.85;;;21.60;67.80;;;;;;5090135;28;20520;-40
2023/10/28 01:05:11;;;;;;;1.52;0.65;;;21.60;67.90;;;;;;5100994;28;20024;-40
2023/10/28 01:07:46;;;;;;;1.15;0.70;;;21.60;67.90;;;;;;5088380;28;20044;-40
2023/10/28 01:10:16;;;;;;;0.80;0.60;;;21.60;67.80;;;;;;5099435;28;20024;-40
2023/10/28 01:12:43;;;;;;;2.40;0.95;;;21.60;67.90;;;;;;5085695;28;20557;-40
2023/10/28 01:15:09;;;;;;;2.30;0.80;;;21.60;67.90;;;;;;5099895;28;20024;-40
2023/10/28 01:17:35;;;;;;;1.27;0.70;;;21.60;67.90;;;;;;5091816;28;20020;-40
2023/10/28 01:20:01;;;;;;;1.63;0.82;;;21.60;67.90;;;;;;5086650;28;20393;-40
2023/10/28 01:22:27;;;;;;;1.45;0.60;;;21.60;67.90;;;;;;5096211;28;20047;-40
2023/10/28 01:24:54;;;;;;;1.42;0.73;;;21.60;67.90;;;;;;5083985;28;20090;-40
2023/10/28 01:27:20;;;;;;;1.73;0.90;;;21.50;67.90;;;;;;5092553;28;20044;-39
2023/10/28 01:29:47;;;;;;;2.10;0.82;;;21.50;67.90;;;;;;5083952;28;20071;-40
2023/10/28 01:32:14;;;;;;;1.45;0.70;;;21.50;67.90;;;;;;5092599;28;20032;-38
2023/10/28 01:34:50;;;;;;;1.33;0.70;;;21.50;67.90;;;;;;5088035;28;20020;-39
2023/10/28 01:37:17;;;;;;;1.55;0.70;;;21.50;67.90;;;;;;5100609;28;20108;-39
2023/10/28 01:39:51;;;;;;;0.77;0.70;;;21.50;67.90;;;;;;5094443;28;20024;-40
2023/10/28 01:42:18;;;;;;;1.02;0.70;;;21.50;67.90;;;;;;5092196;28;20048;-39
2023/10/28 01:44:45;;;;;;;0.73;0.50;;;21.50;67.90;;;;;;5092146;28;20030;-39
2023/10/28 01:47:11;;;;;;;1.58;0.73;;;21.50;67.90;;;;;;5084516;28;20044;-39
2023/10/28 01:49:38;;;;;;;0.73;0.52;;;21.50;68.00;;;;;;5084785;28;20131;-39
2023/10/28 01:52:06;;;;;;;0.93;0.63;;;21.40;67.90;;;;;;5099353;28;20032;-39
2023/10/28 01:54:33;;;;;;;1.83;0.77;;;21.40;67.90;;;;;;5089403;28;20050;-39
2023/10/28 01:57:05;;;;;;;1.63;0.88;;;21.40;67.90;;;;;;5091513;28;20051;-39
2023/10/28 01:59:32;;;;;;;1.55;0.70;;;21.40;67.90;;;;;;5090498;28;20103;-39
2023/10/28 02:02:01;;;;;;;0.80;0.52;;;21.40;67.90;;;;;;5088532;28;20040;-39
2023/10/28 02:04:28;;;;;;;1.20;0.70;;;21.40;68.00;;;;;;5095372;28;20036;-39
2023/10/28 02:06:54;;;;;;;1.13;0.50;;;21.40;68.00;;;;;;5102139;28;20035;-39
2023/10/28 02:09:20;;;;;;;1.25;0.70;;;21.40;68.00;;;;;;5094810;28;20032;-39
2023/10/28 02:11:47;;;;;;;0.95;0.70;;;21.40;68.00;;;;;;5087181;28;20040;-39
2023/10/28 02:14:13;;;;;;;;;;;21.40;68.00;;;;;;5098499;28;20646;-39
2023/10/28 02:16:40;;;;;;;1.75;0.80;;;21.40;68.00;;;;;;5097303;28;19914;-39
2023/10/28 02:19:06;;;;;;;1.20;0.70;;;21.40;68.00;;;;;;5103540;28;20024;-39
2023/10/28 02:21:32;;;;;;;1.83;0.63;;;21.30;68.00;;;;;;5101232;28;20032;-39
2023/10/28 02:24:00;;;;;;;2.10;0.80;;;21.30;68.00;;;;;;5106883;28;20032;-39
2023/10/28 02:26:26;;;;;;;0.98;0.57;;;21.30;68.00;;;;;;5091678;28;20032;-39
2023/10/28 02:28:52;;;;;;;1.23;0.70;;;21.30;68.00;;;;;;5095032;28;20131;-38
2023/10/28 02:31:18;;;;;;;1.02;0.70;;;21.30;68.10;;;;;;5087255;28;20032;-40
2023/10/28 02:33:44;;;;;;;1.75;0.70;;;21.30;68.00;;;;;;5098297;28;20051;-39
2023/10/28 02:36:10;;;;;;;0.88;0.70;;;21.30;68.00;;;;;;5100703;28;20039;-39
2023/10/28 02:38:37;;;;;;;1.85;0.85;;;21.30;68.00;;;;;;5096613;28;20024;-38
2023/10/28 02:41:06;;;;;;;1.70;0.65;;;21.30;68.00;;;;;;5095130;28;20489;-38
2023/10/28 02:43:35;;;;;;;1.02;0.70;;;21.30;68.10;;;;;;5097505;28;20062;-38
2023/10/28 02:46:03;;;;;;;1.67;0.85;;;21.20;68.10;;;;;;5095977;28;20035;-39
2023/10/28 02:48:29;;;;;;;0.90;0.80;;;21.20;68.00;;;;;;5098213;28;20060;-38
2023/10/28 02:50:55;;;;;;;1.70;0.80;;;21.20;68.00;;;;;;5101799;28;20059;-38
2023/10/28 02:53:22;;;;;;;1.88;0.80;;;21.20;68.10;;;;;;5104621;28;20024;-39
2023/10/28 02:55:48;;;;;;;0.88;0.70;;;21.20;68.10;;;;;;5093755;28;20035;-39
2023/10/28 02:58:14;;;;;;;1.17;0.70;;;21.20;68.10;;;;;;5101892;28;20031;-38
2023/10/28 03:00:40;;;;;;;1.10;0.70;;;21.20;68.10;;;;;;5086717;28;20131;-38
2023/10/28 03:03:07;;;;;;;2.63;0.95;;;21.20;68.10;;;;;;5101157;28;20043;-39
2023/10/28 03:05:33;;;;;;;2.13;0.90;;;21.10;68.10;;;;;;5099933;28;20028;-38
2023/10/28 03:07:59;;;;;;;2.05;0.90;;;21.10;68.10;;;;;;5089766;28;20381;-39
2023/10/28 03:10:26;;;;;;;2.13;0.80;;;21.10;68.10;;;;;;5104402;28;20038;-40
2023/10/28 03:12:52;;;;;;;1.95;0.77;;;21.10;68.20;;;;;;5101716;28;20024;-40
2023/10/28 03:15:18;;;;;;;1.30;0.85;;;21.10;68.10;;;;;;5100475;28;20084;-39
2023/10/28 03:17:44;;;;;;;3.72;0.88;;;21.10;68.20;;;;;;5100113;28;20062;-39
2023/10/28 03:20:11;;;;;;;0.80;0.60;;;21.10;68.20;;;;;;5098624;28;20040;-38
2023/10/28 03:22:38;;;;;;;1.20;0.90;;;21.10;68.30;;;;;;5097998;28;20119;-38
2023/10/28 03:25:04;;;;;;;3.53;0.85;;;21.10;68.30;;;;;;5087466;28;20036;-39
2023/10/28 03:27:32;;;;;;;1.90;0.98;;;21.10;68.30;;;;;;5091586;28;20028;-39
2023/10/28 03:29:58;;;;;;;2.60;0.90;;;21.10;68.20;;;;;;5088391;28;20021;-40
2023/10/28 03:32:24;;;;;;;1.05;0.70;;;21.10;68.30;;;;;;5097360;28;20064;-40
2023/10/28 03:34:51;;;;;;;1.17;0.80;;;21.00;68.20;;;;;;5097110;28;20017;-40
2023/10/28 03:37:17;;;;;;;1.20;0.80;;;21.00;68.20;;;;;;5100074;28;20039;-40
2023/10/28 03:39:43;;;;;;;2.03;0.80;;;21.00;68.30;;;;;;5094142;28;20277;-40
2023/10/28 03:42:11;;;;;;;3.08;0.90;;;21.00;68.20;;;;;;5094811;28;20060;-40
2023/10/28 03:44:37;;;;;;;1.50;0.73;;;21.00;68.30;;;;;;5102667;28;20024;-40
2023/10/28 03:47:04;;;;;;;0.77;0.75;;;21.00;68.30;;;;;;5089226;28;20055;-40
2023/10/28 03:49:31;;;;;;;1.63;0.90;;;21.00;68.30;;;;;;5099216;28;20028;-40
2023/10/28 03:51:58;;;;;;;1.05;0.70;;;21.00;68.30;;;;;;5089972;28;20027;-40
2023/10/28 03:54:24;;;;;;;1.95;0.90;;;20.90;68.30;;;;;;5092984;28;20036;-40
2023/10/28 03:56:51;;;;;;;2.15;0.80;;;21.00;68.30;;;;;;5093400;28;20302;-40
2023/10/28 03:59:17;;;;;;;1.40;0.80;;;20.90;68.30;;;;;;5093799;28;20039;-40
2023/10/28 04:01:44;;;;;;;1.75;0.77;;;20.90;68.30;;;;;;5085809;28;20024;-38
2023/10/28 04:04:10;;;;;;;1.13;0.80;;;20.90;68.40;;;;;;5101118;28;20035;-39
2023/10/28 04:06:36;;;;;;;1.35;0.90;;;20.90;68.40;;;;;;5095104;28;20554;-40
2023/10/28 04:09:03;;;;;;;1.88;1.10;;;20.90;68.40;;;;;;5100633;28;20024;-40
2023/10/28 04:11:29;;;;;;;1.42;0.82;;;20.90;68.80;;;;;;5103209;28;20042;-40
2023/10/28 04:13:56;;;;;;;1.48;0.80;;;20.90;68.40;;;;;;5093050;28;20020;-40
2023/10/28 04:16:22;;;;;;;2.15;1.02;;;20.90;68.40;;;;;;5096877;28;20024;-39
2023/10/28 04:18:48;;;;;;;1.00;0.90;;;20.80;68.30;;;;;;5089229;28;20032;-39
2023/10/28 04:21:15;;;;;;;1.02;0.80;;;20.90;68.40;;;;;;5087155;28;20028;-40
2023/10/28 04:23:41;;;;;;;2.88;0.80;;;20.80;68.30;;;;;;5088904;28;20033;-39
2023/10/28 04:26:07;;;;;;;2.60;0.80;;;20.80;68.40;;;;;;5093375;28;20048;-39
2023/10/28 04:28:34;;;;;;;1.08;0.90;;;20.80;68.40;;;;;;5098633;28;20028;-39
2023/10/28 04:31:00;;;;;;;1.25;0.80;;;20.80;68.40;;;;;;5085961;28;20032;-39
2023/10/28 04:33:26;;;;;;;0.88;0.70;;;20.80;68.40;;;;;;5090557;28;20027;-38
2023/10/28 04:35:53;;;;;;;1.52;0.90;;;20.80;68.50;;;;;;5089226;28;20024;-39
2023/10/28 04:38:20;;;;;;;2.55;0.93;;;20.80;68.50;;;;;;5101777;28;20038;-38
2023/10/28 04:40:46;;;;;;;0.95;0.75;;;20.80;68.50;;;;;;5093421;28;20032;-38
2023/10/28 04:43:12;;;;;;;2.47;0.90;;;20.70;68.50;;;;;;5098133;28;20111;-39
2023/10/28 04:45:42;;;;;;;1.65;0.80;;;20.80;68.50;;;;;;5090775;28;20033;-39
2023/10/28 04:48:13;;;;;;;3.80;1.05;;;20.70;68.50;;;;;;5089860;28;20054;-39
2023/10/28 04:50:42;;;;;;;1.25;1.02;;;20.70;69.20;;;;;;5092109;28;20020;-39
2023/10/28 04:53:09;;;;;;;1.45;0.90;;;20.70;68.50;;;;;;5092803;28;20590;-39
2023/10/28 04:55:35;;;;;;;2.03;0.93;;;20.70;68.60;;;;;;5092390;28;20397;-39
2023/10/28 04:58:02;;;;;;;1.67;0.88;;;20.70;68.60;;;;;;5092603;28;20068;-39
2023/10/28 05:00:29;;;;;;;1.33;0.93;;;20.70;68.60;;;;;;5102326;28;20028;-39
2023/10/28 05:02:55;;;;;;;1.75;0.80;;;20.60;68.50;;;;;;5099792;28;20061;-38
2023/10/28 05:05:21;;;;;;;2.00;0.68;;;20.60;68.50;;;;;;5099462;28;20097;-38
2023/10/28 05:07:47;;;;;;;1.83;0.90;;;20.60;68.50;;;;;;5099345;28;20028;-39
2023/10/28 05:10:14;;;;;;;2.17;0.77;;;20.60;68.50;;;;;;5099206;28;20020;-38
2023/10/28 05:12:40;;;;;;;1.70;0.80;;;20.60;68.50;;;;;;5100639;28;20283;-39
2023/10/28 05:15:08;;;;;;;1.50;0.75;;;20.60;68.50;;;;;;5092483;28;20044;-39
2023/10/28 05:17:37;;;;;;;1.00;0.82;;;20.60;68.50;;;;;;5093437;28;20040;-39
2023/10/28 05:20:08;;;;;;;0.95;0.77;;;20.60;68.50;;;;;;5100580;28;20024;-38
2023/10/28 05:22:37;;;;;;;3.08;1.10;;;20.60;68.50;;;;;;5098808;28;20039;-39
2023/10/28 05:25:07;;;;;;;1.85;0.98;;;20.60;68.50;;;;;;5100667;28;20020;-39
2023/10/28 05:27:34;;;;;;;2.30;0.90;;;20.60;68.60;;;;;;5093676;28;20028;-38
2023/10/28 05:30:00;;;;;;;2.50;0.95;;;20.50;68.60;;;;;;5098166;28;20042;-39
2023/10/28 05:32:26;;;;;;;1.55;1.00;;;20.50;68.60;;;;;;5098946;28;20055;-39
2023/10/28 05:34:52;;;;;;;1.73;1.07;;;20.50;68.60;;;;;;5101960;28;20024;-39
2023/10/28 05:37:19;;;;;;;3.03;1.20;;;20.50;68.60;;;;;;5100199;28;20778;-39
2023/10/28 05:39:45;;;;;;;1.30;0.95;;;20.50;68.60;;;;;;5101098;28;20036;-39
2023/10/28 05:42:11;;;;;;;2.60;1.00;;;20.50;68.60;;;;;;5094099;28;20129;-39
2023/10/28 05:44:38;;;;;;;1.55;1.00;;;20.50;68.60;;;;;;5094700;28;20112;-39
2023/10/28 05:47:04;;;;;;;2.65;0.93;;;20.50;68.60;;;;;;5097935;28;20024;-39
2023/10/28 05:49:32;;;;;;;2.78;1.00;;;20.40;68.50;;;;;;5096297;28;20123;-39
2023/10/28 05:52:20;;;;;;;1.33;1.00;;;20.40;68.60;;;;;;5093626;28;20037;-39
2023/10/28 05:54:46;;;;;;;1.30;1.10;;;20.40;68.60;;;;;;5060066;28;20101;-40
2023/10/28 05:57:12;;;;;;;2.25;0.90;;;20.40;68.60;;;;;;5059664;28;20049;-39
2023/10/28 05:59:39;;;;;;;1.42;0.80;;;20.40;68.60;;;;;;5059268;28;20049;-40
2023/10/28 06:02:05;;;;;;;1.38;0.82;;;20.40;69.50;;;;;;5059386;28;20120;-40
2023/10/28 06:04:31;;;;;;;1.67;0.90;;;20.30;68.70;;;;;;5059626;28;20037;-40
2023/10/28 06:06:58;;;;;;;1.85;1.00;;;20.30;68.70;;;;;;5059331;28;20041;-40
2023/10/28 06:09:24;;;;;;;1.33;0.80;;;20.30;68.60;;;;;;5051852;28;20032;-39
2023/10/28 06:11:50;;;;;;;1.75;1.20;;;20.30;68.60;;;;;;5040673;28;20277;-40
2023/10/28 06:14:16;;;;;;;1.15;1.00;;;20.30;68.70;;;;;;5059108;28;20035;-43
2023/10/28 06:16:43;;;;;;;2.92;1.08;;;20.30;68.60;;;;;;5059576;28;20032;-40
2023/10/28 06:19:10;;;;;;;1.25;0.90;;;20.20;68.60;;;;;;5059267;28;20049;-39
2023/10/28 06:21:36;;;;;;;1.55;1.00;;;20.30;68.70;;;;;;5060081;28;20044;-40
2023/10/28 06:24:02;;;;;;;1.55;0.90;;;20.20;68.70;;;;;;5060713;28;20036;-39
2023/10/28 06:26:29;;;;;;;1.07;0.83;;;20.20;68.70;;;;;;5059648;28;20043;-40
2023/10/28 06:28:55;;;;;;;2.03;1.10;;;20.20;68.80;;;;;;5059467;28;20037;-40
2023/10/28 06:31:21;;;;;;;2.38;1.00;;;20.20;68.80;;;;;;5071614;28;20101;-41
2023/10/28 06:33:47;;;;;;;1.33;0.85;;;20.20;68.80;;;;;;5103667;28;20020;-39
2023/10/28 06:36:13;;;;;;;3.13;0.93;;;20.20;68.80;;;;;;5090792;28;20028;-39
2023/10/28 06:38:40;;;;;;;1.10;1.00;;;20.20;68.80;;;;;;5089174;28;20032;-39
2023/10/28 06:41:06;;;;;;;1.17;1.02;;;20.20;68.80;;;;;;5096084;28;20027;-40
2023/10/28 06:43:33;;;;;;;4.20;1.10;;;20.20;68.80;;;;;;5094216;28;20054;-40
2023/10/28 06:45:59;;;;;;;2.35;1.40;;;20.20;68.80;;;;;;5083064;28;20052;-39
2023/10/28 06:48:25;;;;;;;1.20;1.10;;;20.10;68.80;;;;;;5084716;28;20040;-40
2023/10/28 06:50:51;;;;;;;1.70;1.20;;;20.10;68.80;;;;;;5095030;28;20035;-40
2023/10/28 06:53:17;;;;;;;2.17;0.90;;;20.10;68.80;;;;;;5094214;28;20020;-39
2023/10/28 06:55:43;;;;;;;2.22;1.10;;;20.10;68.80;;;;;;5086441;28;20032;-40
2023/10/28 06:58:10;;;;;;;1.80;1.00;;;20.10;68.80;;;;;;5091650;28;20028;-40
2023/10/28 07:00:37;;;;;;;1.52;1.10;;;20.10;68.80;;;;;;5099502;28;20116;-40
2023/10/28 07:03:03;;;;;;;1.13;1.00;;;20.10;69.10;;;;;;5093914;28;20047;-39
2023/10/28 07:05:29;;;;;;;2.83;0.90;;;20.00;68.80;;;;;;5092605;28;20063;-39
2023/10/28 07:07:55;;;;;;;1.95;1.10;;;20.00;68.90;;;;;;5091717;28;20028;-39
2023/10/28 07:10:22;;;;;;;1.58;0.90;;;20.00;68.80;;;;;;5100938;28;20161;-39
2023/10/28 07:12:49;;;;;;;1.95;1.10;;;20.00;68.90;;;;;;5093375;28;20036;-39
2023/10/28 07:15:16;;;;;;;1.88;1.20;;;20.00;68.90;;;;;;5095506;28;20107;-39
2023/10/28 07:17:43;;;;;;;1.47;1.17;;;20.00;68.90;;;;;;5102524;28;20087;-39
2023/10/28 07:20:09;;;;;;;2.22;1.23;;;20.00;68.90;;;;;;5095655;28;20027;-39
2023/10/28 07:22:36;;;;;;;1.33;1.00;;;19.90;68.90;;;;;;5097940;28;20041;-39
2023/10/28 07:25:02;;;;;;;1.83;1.02;;;20.00;68.90;;;;;;5101272;28;20024;-39
2023/10/28 07:27:28;;;;;;;2.00;1.30;;;19.90;68.90;;;;;;5096714;28;20060;-39
2023/10/28 07:29:55;;;;;;;1.20;1.00;;;19.90;68.90;;;;;;5088244;28;20048;-39
2023/10/28 07:32:21;;;;;;;2.45;1.27;;;19.90;68.90;;;;;;5091322;28;20062;-39
2023/10/28 07:34:47;;;;;;;2.40;1.08;;;19.90;68.90;;;;;;5103942;28;20028;-39
2023/10/28 07:37:13;;;;;;;1.35;1.10;;;19.90;68.90;;;;;;5093757;28;20035;-39
2023/10/28 07:39:41;;;;;;;1.70;1.17;;;19.90;69.00;;;;;;5089810;28;20036;-39
2023/10/28 07:42:07;;;;;;;1.50;1.10;;;19.90;69.00;;;;;;5102383;28;20054;-39
2023/10/28 07:44:33;;;;;;;1.30;1.17;;;19.90;69.00;;;;;;5103496;28;20028;-39
2023/10/28 07:47:00;;;;;;;1.77;1.45;;;19.90;69.00;;;;;;5095165;28;20489;-39
2023/10/28 07:49:27;;;;;;;2.85;1.45;;;19.80;69.00;;;;;;5100258;28;20032;-39
2023/10/28 07:51:54;;;;;;;1.67;1.25;;;19.80;69.10;;;;;;5104047;28;20035;-39
2023/10/28 07:54:20;;;;;;;2.22;1.27;;;19.80;69.10;;;;;;5095225;28;20028;-39
2023/10/28 07:56:47;;;;;;;2.27;1.37;;;19.80;69.10;;;;;;5103259;28;20028;-39
2023/10/28 07:59:13;;;;;;;3.10;1.38;;;19.80;69.00;;;;;;5096211;28;20028;-39
2023/10/28 08:01:42;;;;;;;1.50;1.30;;;19.80;69.10;;;;;;5097283;28;20040;-39
2023/10/28 08:04:08;;;;;;;2.30;1.40;;;19.80;69.10;;;;;;5098802;28;20079;-39
2023/10/28 08:06:37;;;;;;;2.30;1.40;;;19.80;69.10;;;;;;5101010;28;20032;-38
2023/10/28 08:09:08;;;;;;;2.15;1.20;;;19.80;69.10;;;;;;5099972;28;20560;-38
2023/10/28 08:11:35;;;;;;;1.95;1.40;;;19.70;69.10;;;;;;5092025;28;20036;-38
2023/10/28 08:14:03;;;;;;;2.43;1.23;;;19.70;69.00;;;;;;5100170;28;20024;-38
2023/10/28 08:16:29;;;;;;;2.72;1.30;;;19.70;69.00;;;;;;5096266;28;20027;-39
2023/10/28 08:18:56;;;;;;;3.27;1.60;;;19.70;69.10;;;;;;5091153;28;20024;-39
2023/10/28 08:21:22;;;;;;;3.38;1.30;;;19.70;69.80;;;;;;5094649;28;20024;-39
2023/10/28 08:24:10;;;;;;;1.17;1.00;;;19.70;69.10;;;;;;5097908;28;20135;-39
2023/10/28 08:26:37;;;;;;;1.65;1.33;;;19.70;69.20;;;;;;5039038;28;20041;-39
2023/10/28 08:29:03;;;;;;;2.13;1.08;;;19.70;69.10;;;;;;5061184;28;20032;-40
2023/10/28 08:31:29;;;;;;;2.00;1.60;;;19.70;69.20;;;;;;5044143;28;20091;-39
2023/10/28 08:33:55;;;;;;;1.85;1.40;;;19.70;69.10;;;;;;5057987;28;20029;-39
2023/10/28 08:36:21;;;;;;;2.03;1.30;;;19.70;69.20;;;;;;5061033;28;20021;-39
2023/10/28 08:38:47;;;;;;;3.03;1.40;;;19.60;69.20;;;;;;5060944;28;20028;-39
2023/10/28 08:41:16;;;;;;;1.88;1.30;;;19.60;69.20;;;;;;5060515;28;20040;-39
2023/10/28 08:43:42;;;;;;;1.98;1.40;;;19.60;69.20;;;;;;5041545;28;20053;-39
2023/10/28 08:46:08;;;;;;;1.60;1.30;;;19.60;69.20;;;;;;5060279;28;20032;-39
2023/10/28 08:48:36;;;;;;;1.37;1.10;;;19.60;69.20;;;;;;5044435;28;20039;-39
2023/10/28 08:51:02;;;;;;;1.60;1.33;;;19.60;69.30;;;;;;5060765;28;20110;-39
2023/10/28 08:53:29;;;;;;;1.52;1.40;;;19.60;69.30;;;;;;5062855;28;20029;-39
2023/10/28 08:55:56;;;;;;;2.83;1.60;;;19.60;69.30;;;;;;5043968;28;20041;-39
2023/10/28 08:58:22;;;;;;;;;;;19.60;69.30;;;;;;5044967;28;20060;-39
2023/10/28 09:00:48;;;;;;;1.67;1.30;;;19.50;69.20;;;;;;5055820;28;19917;-39
2023/10/28 09:03:15;;;;;;;1.77;1.25;;;19.50;69.20;;;;;;5071716;28;20059;-39
2023/10/28 09:05:42;;;;;;;2.00;1.40;;;19.50;69.30;;;;;;5088792;28;20099;-39
2023/10/28 09:08:09;;;;;;;1.55;1.23;;;19.50;69.30;;;;;;5096703;28;20050;-39
2023/10/28 09:10:37;;;;;;;2.27;1.57;;;19.50;69.30;;;;;;5085750;28;20090;-39
2023/10/28 09:13:07;;;;;;;2.20;1.63;;;19.50;69.30;;;;;;5089227;28;20031;-39
2023/10/28 09:15:34;;;;;;;1.48;1.30;;;19.50;69.30;;;;;;5093694;28;20054;-39
2023/10/28 09:18:01;;;;;;;1.75;1.42;;;19.50;69.40;;;;;;5092464;28;20083;-39
2023/10/28 09:20:27;;;;;;;2.85;1.50;;;19.50;69.40;;;;;;5095286;28;20039;-39
2023/10/28 09:22:54;;;;;;;1.65;1.17;;;19.50;69.40;;;;;;5094905;28;20032;-39
2023/10/28 09:25:21;;;;;;;2.28;1.30;;;19.50;69.40;;;;;;5093826;28;20024;-39
2023/10/28 09:27:48;;;;;;;2.28;1.42;;;19.50;69.40;;;;;;5093305;28;20020;-39
2023/10/28 09:30:21;;;;;;;1.88;1.50;;;19.50;69.40;;;;;;5085293;28;20070;-39
2023/10/28 09:32:48;;;;;;;1.60;1.40;;;19.40;69.40;;;;;;5090072;28;20052;-39
2023/10/28 09:35:14;;;;;;;1.83;1.20;;;19.40;69.40;;;;;;5089673;28;20028;-39
2023/10/28 09:37:41;;;;;;;1.60;1.27;;;19.40;69.40;;;;;;5089930;28;20036;-39
2023/10/28 09:40:08;;;;;;;2.60;1.67;;;19.40;69.50;;;;;;5084991;28;20028;-40
2023/10/28 09:42:36;;;;;;;1.88;1.40;;;19.40;69.50;;;;;;5083906;28;20084;-39
2023/10/28 09:45:06;;;;;;;1.27;1.10;;;19.40;69.50;;;;;;5084009;28;20489;-39
2023/10/28 09:47:46;;;;;;;1.85;1.35;;;19.40;69.50;;;;;;5086116;28;20028;-40
2023/10/28 09:50:15;;;;;;;1.92;1.48;;;19.40;69.50;;;;;;5091340;28;20115;-39
2023/10/28 09:52:45;;;;;;;1.95;1.50;;;19.40;69.60;;;;;;5097043;28;20024;-40
2023/10/28 09:55:15;;;;;;;2.42;1.50;;;19.40;69.60;;;;;;5091041;28;20055;-39
2023/10/28 09:57:45;;;;;;;2.30;1.52;;;19.40;69.60;;;;;;5090200;28;20062;-39
2023/10/28 10:00:18;;;;;;;2.20;1.60;;;19.40;69.60;;;;;;5092002;28;20036;-39
2023/10/28 10:02:54;;;;;;;2.60;1.80;;;19.30;69.60;;;;;;5093823;28;20040;-39
2023/10/28 10:05:41;;;;;;;2.88;1.73;;;19.30;69.60;;;;;;5098109;28;20021;-40
2023/10/28 10:08:21;;;;;;;3.33;1.70;;;19.30;69.60;;;;;;5076866;28;20055;-39
2023/10/28 10:10:49;;;;;;;2.13;1.40;;;19.30;69.60;;;;;;5090977;28;20028;-39
2023/10/28 10:13:15;;;;;;;2.30;1.58;;;19.30;69.60;;;;;;5084170;28;20054;-40
2023/10/28 10:15:54;;;;;;;2.00;1.50;;;19.30;69.60;;;;;;5094906;28;20043;-39
2023/10/28 10:18:39;;;;;;;2.03;1.52;;;19.30;69.60;;;;;;5101093;28;20016;-39
2023/10/28 10:21:12;;;;;;;2.03;1.55;;;19.30;70.40;;;;;;5087778;28;20056;-39
2023/10/28 10:23:52;;;;;;;1.95;1.48;;;19.30;69.70;;;;;;5099210;28;20091;-38
2023/10/28 10:26:26;;;;;;;1.73;1.50;;;19.30;69.70;;;;;;5095129;28;20020;-39
2023/10/28 10:28:58;;;;;;;2.28;1.70;;;19.20;69.70;;;;;;5094818;28;20405;-39
2023/10/28 10:31:36;;;;;;;2.33;1.60;;;19.20;69.60;;;;;;5092236;28;20104;-39
2023/10/28 10:34:09;;;;;;;2.38;1.75;;;19.20;69.70;;;;;;5098873;28;20066;-39
2023/10/28 10:36:40;;;;;;;1.58;1.33;;;19.20;69.70;;;;;;5097533;28;20043;-39
2023/10/28 10:39:18;;;;;;;2.25;1.63;;;19.20;69.70;;;;;;5103369;28;20058;-39
2023/10/28 10:41:48;;;;;;;1.60;1.50;;;19.20;69.70;;;;;;5094328;28;20036;-39
2023/10/28 10:44:21;;;;;;;2.28;1.80;;;19.20;69.70;;;;;;5097207;28;20066;-39
2023/10/28 10:46:48;;;;;;;2.38;1.65;;;19.20;70.10;;;;;;5093415;28;20028;-39
2023/10/28 10:49:14;;;;;;;2.58;1.85;;;19.20;69.70;;;;;;5096578;28;20250;-39
2023/10/28 10:51:40;;;;;;;4.07;1.88;;;19.20;69.70;;;;;;5096967;28;20035;-39
2023/10/28 10:54:07;;;;;;;2.08;1.60;;;19.20;69.80;;;;;;5089548;28;20036;-39
2023/10/28 10:56:33;;;;;;;2.45;1.58;;;19.20;69.80;;;;;;5100160;28;20036;-38
2023/10/28 10:58:59;;;;;;;1.83;1.60;;;19.20;69.80;;;;;;5075791;28;20074;-38
2023/10/28 11:01:25;;;;;;;2.10;1.58;;;19.10;69.70;;;;;;5097405;28;20036;-40
2023/10/28 11:03:52;;;;;;;3.65;1.70;;;19.10;69.80;;;;;;5095294;28;20046;-39
2023/10/28 11:06:19;;;;;;;2.78;1.67;;;19.10;69.80;;;;;;5086951;28;20028;-39
2023/10/28 11:08:47;;;;;;;2.38;1.75;;;19.10;69.80;;;;;;5104189;28;20139;-39
2023/10/28 11:11:13;;;;;;;;;;;19.10;69.90;;;;;;5100053;28;20051;-39
2023/10/28 11:13:39;;;;;;;2.63;2.03;;;19.10;69.90;;;;;;5103878;28;19951;-39
2023/10/28 11:16:19;;;;;;;1.67;1.50;;;19.10;69.90;;;;;;5096745;28;20020;-39
2023/10/28 11:18:45;;;;;;;2.40;1.60;;;19.10;69.90;;;;;;5095166;28;20039;-39
2023/10/28 11:21:11;;;;;;;2.10;1.80;;;19.10;69.90;;;;;;5102969;28;20092;-39
2023/10/28 11:23:37;;;;;;;1.77;1.60;;;19.10;69.90;;;;;;5101259;28;20047;-39
2023/10/28 11:26:04;;;;;;;3.05;1.60;;;19.00;69.90;;;;;;5101625;28;20024;-39
2023/10/28 11:28:34;;;;;;;2.55;1.73;;;19.00;69.90;;;;;;5104211;28;20415;-39
2023/10/28 11:31:00;;;;;;;2.38;2.00;;;19.00;70.60;;;;;;5089117;28;20460;-39
2023/10/28 11:33:27;;;;;;;1.83;1.55;;;19.00;69.90;;;;;;5100607;28;20021;-39
2023/10/28 11:35:53;;;;;;;2.30;1.80;;;19.00;69.90;;;;;;5096314;28;20035;-39
2023/10/28 11:38:19;;;;;;;3.05;1.70;;;19.00;69.90;;;;;;5085812;28;20088;-40
2023/10/28 11:40:45;;;;;;;2.67;1.80;;;19.00;70.00;;;;;;5095445;28;20028;-39
2023/10/28 11:43:15;;;;;;;2.53;1.95;;;19.00;70.00;;;;;;5084812;28;21668;-39
2023/10/28 11:45:42;;;;;;;2.15;1.85;;;19.00;70.00;;;;;;5084720;28;20036;-39
2023/10/28 11:48:11;;;;;;;2.53;1.73;;;19.00;70.00;;;;;;5096125;28;20124;-39
2023/10/28 11:50:37;;;;;;;2.15;1.70;;;19.00;70.00;;;;;;5092704;28;20028;-39
2023/10/28 11:53:03;;;;;;;2.20;2.00;;;18.90;69.90;;;;;;5101612;28;20063;-39
2023/10/28 11:55:29;;;;;;;2.88;1.90;;;18.90;70.70;;;;;;5090778;28;20036;-39
2023/10/28 11:57:55;;;;;;;3.22;1.73;;;18.90;69.90;;;;;;5085758;28;20037;-39
2023/10/28 12:00:22;;;;;;;2.53;1.90;;;18.90;70.00;;;;;;5093007;28;20074;-39
2023/10/28 12:02:48;;;;;;;3.65;1.80;;;18.90;70.00;;;;;;5090616;28;20039;-39
2023/10/28 12:05:14;;;;;;;2.85;1.90;;;18.90;70.00;;;;;;5097521;28;20024;-39
2023/10/28 12:07:41;;;;;;;2.40;1.90;;;18.90;70.00;;;;;;5088821;28;20055;-40
2023/10/28 12:10:07;;;;;;;2.38;1.80;;;18.90;70.00;;;;;;5095020;28;20097;-40
2023/10/28 12:12:34;;;;;;;2.23;1.80;;;18.90;70.00;;;;;;5091422;28;20043;-40
2023/10/28 12:15:00;;;;;;;2.03;1.52;;;18.90;70.00;;;;;;5094514;28;20020;-40
2023/10/28 12:17:26;;;;;;;3.25;2.28;;;18.80;70.10;;;;;;5090830;28;20088;-40
2023/10/28 12:19:53;;;;;;;3.03;2.05;;;18.90;70.00;;;;;;5094530;28;20059;-40
2023/10/28 12:22:19;;;;;;;2.63;1.95;;;18.90;70.10;;;;;;5096947;28;20043;-40
2023/10/28 12:24:45;;;;;;;2.35;1.90;;;18.80;70.00;;;;;;5084629;28;20033;-40
2023/10/28 12:27:11;;;;;;;3.65;1.95;;;18.80;70.00;;;;;;5084283;28;20033;-40
2023/10/28 12:29:37;;;;;;;2.90;1.77;;;18.80;70.00;;;;;;5090422;28;20036;-40
2023/10/28 12:32:04;;;;;;;2.45;2.08;;;18.80;70.10;;;;;;5100584;28;20028;-39
2023/10/28 12:34:33;;;;;;;2.50;2.10;;;18.80;70.10;;;;;;5094465;28;20016;-40
2023/10/28 12:36:59;;;;;;;2.50;2.30;;;18.80;70.20;;;;;;5090076;28;20032;-40
2023/10/28 12:39:27;;;;;;;1.95;1.73;;;18.80;70.20;;;;;;5089440;28;20085;-40
2023/10/28 12:41:53;;;;;;;2.33;1.80;;;18.80;70.10;;;;;;5087715;28;20103;-40
2023/10/28 12:44:19;;;;;;;2.47;2.00;;;18.80;70.20;;;;;;5087372;28;20032;-41
2023/10/28 12:46:46;;;;;;;3.22;1.85;;;18.80;70.10;;;;;;5099047;28;20034;-38
2023/10/28 12:49:12;;;;;;;2.50;2.20;;;18.80;70.20;;;;;;5091288;28;20066;-39